• Join FlightAware (Why Join?)
  • Login
  • US Flag 
04:53AM EDT


 

Airport Tracker/Info


-or-


 

Live Flight TrackerFlight Track Log ✈ N960DL ✈ 04-May-2013 ✈ KATL - KDTW

Flight Track Log - Related Links

Times and Time Zones

All times are in EDT time to prevent confusion due to time zone crossing. See the N960DL flight status page for this flight to view local times or setup timezone preferences in your user account.

Time Position Orientation Groundspeed Altitude Reporting Facility
EDT Latitude Longitude Course Direction KTS MPH feet Rate Location/Type
05:20PM 33.6500 -84.3667 North 197 227 2,900  Level Atlanta TRACON
05:21PM 33.6667 -84.2833 76° East 245 282 5,500 2,400 Climbing Atlanta TRACON
05:23PM 33.9241 -84.2574 320° Northwest  Level FlightAware Approximate
05:23PM 33.7525 -84.1736 47° Northeast 287 330 10,100  Level Atlanta Center
05:24PM 34.0418 -84.2667 North  Level FlightAware Approximate
05:24PM 33.8547 -84.1964 350° North 326 375 10,000  Level Atlanta Center
05:25PM 34.1622 -84.2667 North  Level FlightAware Approximate
05:25PM 33.9361 -84.2667 324° Northwest 336 387 11,700  Level Atlanta Center
05:26PM 34.2827 -84.2667 North  Level FlightAware Approximate
05:26PM 34.0444 -84.2769 356° North 362 417 13,700  Level Atlanta Center
05:27PM 34.1550 -84.2797 359° North 393 452 16,300 2,220 Climbing Atlanta Center
05:28PM 34.2700 -84.2800 360° North 406 467 18,200 1,800 Climbing Atlanta Center
05:29PM 34.3931 -84.2578 North 406 467 19,900 1,500 Climbing Atlanta Center
05:30PM 34.5142 -84.2278 12° North 419 482 21,200 1,500 Climbing Atlanta Center
05:31PM 34.6372 -84.1978 11° North 440 506 23,000 1,620 Climbing Atlanta Center
05:32PM 34.7417 -84.1753 10° North 435 501 24,500 1,320 Climbing Atlanta Center
05:33PM 34.8647 -84.1450 11° North 435 501 25,700 1,080 Climbing Atlanta Center
05:34PM 34.9900 -84.1147 11° North 440 506 26,700 1,020 Climbing Atlanta Center
05:35PM 35.1194 -84.0869 10° North 459 528 27,800 1,080 Climbing Atlanta Center
05:36PM 35.2467 -84.0567 11° North 465 535 28,900 900 Climbing Atlanta Center
05:37PM 35.3761 -84.0208 13° North 465 535 29,700 720 Climbing Atlanta Center
05:38PM 35.5033 -83.9672 19° North 470 541 30,400 600 Climbing Atlanta Center
05:39PM 35.6328 -83.9058 21° North 484 557 31,000 1,020 Climbing Atlanta Center
05:40PM 35.7536 -83.8367 25° Northeast 484 557 32,500 1,020 Climbing Atlanta Center
05:41PM 35.8703 -83.7672 26° Northeast 478 550 33,100 780 Climbing Atlanta Center
05:42PM 35.9889 -83.6975 25° Northeast 468 539 34,100 840 Climbing Atlanta Center
05:43PM 36.1014 -83.6303 26° Northeast 456 525 34,800 420 Climbing Atlanta Center
05:44PM 36.2242 -83.5806 18° North 456 525 35,000 60 Climbing Atlanta Center
05:45PM 36.3514 -83.5386 15° North 461 531 35,000  Level Atlanta Center
05:46PM 36.4583 -83.4958 18° North 471 542 35,000  Level Indianapolis Center
05:47PM 36.5911 -83.4581 13° North 483 556 35,000  Level Indianapolis Center
05:48PM 36.7253 -83.4325 North 484 557 35,000  Level Indianapolis Center
05:49PM 36.8608 -83.4111 North 486 559 35,000  Level Indianapolis Center
05:50PM 36.9936 -83.3917 North 478 550 35,000  Level Indianapolis Center
05:51PM 37.1253 -83.3625 10° North 477 549 35,000  Level Indianapolis Center
05:52PM 37.2497 -83.3069 20° North 472 543 35,000  Level Indianapolis Center
05:53PM 37.3731 -83.2539 19° North 465 535 35,000  Level Indianapolis Center
05:54PM 37.5158 -83.1900 20° North 466 536 35,000  Level Indianapolis Center
05:55PM 37.6403 -83.1331 20° North 473 544 35,000  Level Indianapolis Center
05:57PM 37.7636 -83.0783 19° North 467 537 35,000  Level Indianapolis Center
05:58PM 37.8839 -83.0222 20° North 460 529 35,000  Level Indianapolis Center
05:59PM 38.0031 -82.9672 20° North 455 524 35,000  Level Indianapolis Center
06:00PM 38.1217 -82.9136 20° North 452 520 35,000  Level Indianapolis Center
06:01PM 38.2422 -82.8589 20° North 457 526 35,000  Level Indianapolis Center
06:02PM 38.3608 -82.8028 20° North 454 522 35,000  Level Indianapolis Center
06:03PM 38.5011 -82.7403 19° North 456 525 35,000  Level Indianapolis Center
06:04PM 38.6194 -82.6842 20° North 453 521 35,000  Level Indianapolis Center
06:05PM 38.7386 -82.6303 19° North 453 521 35,000  Level Indianapolis Center
06:06PM 38.8597 -82.5792 18° North 458 527 35,000  Level Indianapolis Center
06:07PM 38.9878 -82.5561 North 461 531 35,000  Level Indianapolis Center
06:08PM 39.1164 -82.5361 North 464 534 35,000  Level Indianapolis Center
06:09PM 39.2447 -82.5494 355° North 469 540 35,000  Level Indianapolis Center
06:10PM 39.3750 -82.5700 353° North 468 539 35,000 -60 Level Indianapolis Center
06:11PM 39.5253 -82.5478 North 461 531 34,900  Descending Indianapolis Center
06:12PM 39.6522 -82.5172 10° North 462 532 35,000  Climbing Indianapolis Center
06:13PM 39.7783 -82.4853 11° North 462 532 35,000  Level Indianapolis Center
06:14PM 39.9056 -82.4544 11° North 463 533 35,000 -180 Level Indianapolis Center
06:15PM 40.0308 -82.4225 11° North 457 526 34,700 -1,020 Descending Indianapolis Center
06:16PM 40.1564 -82.3922 10° North 456 525 33,000 -1,740 Descending Indianapolis Center
06:17PM 40.2947 -82.3544 12° North 457 526 31,200 -1,500 Descending Indianapolis Center
06:18PM 40.4203 -82.3244 10° North 454 522 30,000 -600 Descending Indianapolis Center
06:19PM 40.5461 -82.3194 North 451 519 30,000  Level Indianapolis Center
06:20PM 40.6497 -82.3511 347° North 448 516 30,000 -1,140 Level Cleveland Center
06:21PM 40.7719 -82.3872 347° North 448 516 28,000 -2,340 Descending Cleveland Center
06:22PM 40.8861 -82.4206 348° North 448 516 25,400 -2,100 Descending Cleveland Center
06:23PM 41.0064 -82.4569 347° North 448 516 23,800 -2,100 Descending Cleveland Center
06:24PM 41.1247 -82.4850 350° North 442 509 21,300 -3,060 Descending Cleveland Center
06:25PM 41.2408 -82.5272 345° North 430 495 17,700 -2,760 Descending Cleveland Center
06:26PM 41.3372 -82.6186 325° Northwest 424 488 15,800 -1,800 Descending Cleveland Center
06:27PM 41.4292 -82.7239 319° Northwest 412 474 14,100 -1,740 Descending Cleveland Center
06:27PM 41.4681 -82.7694 319° Northwest 381 438 13,300 -1,800 Descending Cleveland Center
06:28PM 41.5067 -82.8181 317° Northwest 392 451 12,300 -2,100 Descending Cleveland Center
06:28PM 41.5453 -82.8608 320° Northwest 371 427 11,200 -1,440 Descending Cleveland Center
06:29PM 41.5819 -82.9067 317° Northwest 379 436 10,900 -240 Descending Cleveland Center
06:29PM 41.6228 -82.9525 320° Northwest 360 414 11,000  Climbing Cleveland Center
06:30PM 41.6492 -82.9842 318° Northwest 368 423 10,900  Descending Cleveland Center
06:30PM 41.6958 -83.0414 318° Northwest 329 379 11,000  Climbing Cleveland Center
06:31PM 41.7203 -83.0675 321° Northwest 348 400 10,900 -840 Descending Cleveland Center
06:31PM 41.7736 -83.1086 330° Northwest 331 381 10,200 -900 Descending Cleveland Center
06:32PM 41.7961 -83.1289 326° Northwest 334 384 10,000 -1,500 Descending Cleveland Center
06:32PM 41.8408 -83.1808 319° Northwest 301 346 8,700 -2,040 Descending Cleveland Center
06:33PM 41.8611 -83.2067 317° Northwest 321 369 8,000 -2,100 Descending Cleveland Center
06:33PM 41.8953 -83.2667 307° West 301 346 6,600 -2,040 Descending Cleveland Center
06:34PM 41.9089 -83.3036 296° West 293 337 6,000 -720 Descending Cleveland Center
06:34PM 41.9242 -83.3600 290° West 261 300 5,900  Descending Cleveland Center
06:35PM 41.9300 -83.3856 287° West 271 312 6,000 -780 Climbing Cleveland Center
06:35PM 41.9431 -83.4419 287° West 242 278 5,200 -1,440 Descending Cleveland Center
06:36PM 41.9550 -83.4703 300° West 254 292 4,600 -1,080 Descending Cleveland Center
06:37PM 42.0047 -83.4781 353° North 234 269 4,000 -600 Descending Cleveland Center
06:37PM 42.0192 -83.4789 358° North 199 229 4,000 -360 Level Cleveland Center
06:37PM 42.0553 -83.4553 26° Northeast 210 242 3,700 -960 Descending Cleveland Center
06:38PM 42.1042 -83.4183 29° Northeast 185 213 2,600 -960 Descending Cleveland Center
06:39PM 42.1444 -83.3919 26° Northeast 142 163 1,800 -840 Descending Cleveland Center
06:40PM 42.1783 -83.3656 30° Northeast 143 165 1,000 -840 Descending Cleveland Center